Time;durP1;ratioP1;P1;durP2;ratioP2;P2;SDS_P1;SDS_P2;PMS_P1;PMS_P2;Temp;Humidity;BMP_temperature;BMP_pressure;BME280_temperature;BME280_humidity;BME280_pressure;Samples;Min_cycle;Max_cycle;Signal;HPM_P1;HPM_P2
2021/09/04 00:00:11;;;;;;;8.38;4.43;;;15.80;99.90;;;;;;5051799;28;20033;-85
2021/09/04 00:02:37;;;;;;;7.95;4.40;;;15.90;99.90;;;;;;5051735;28;20500;-85
2021/09/04 00:05:04;;;;;;;7.13;4.50;;;16.10;99.90;;;;;;5051832;28;20061;-85
2021/09/04 00:07:32;;;;;;;7.35;4.30;;;16.20;99.90;;;;;;5051753;28;20017;-85
2021/09/04 00:09:58;;;;;;;11.70;4.72;;;16.00;99.90;;;;;;5051760;28;20029;-85
2021/09/04 00:12:25;;;;;;;8.90;4.53;;;15.90;99.90;;;;;;5053311;28;20436;-85
2021/09/04 00:14:52;;;;;;;11.02;4.78;;;15.80;99.90;;;;;;5051736;28;20017;-85
2021/09/04 00:17:18;;;;;;;5.88;4.65;;;15.50;99.90;;;;;;5051664;28;20025;-85
2021/09/04 00:19:44;;;;;;;10.85;4.72;;;15.60;99.90;;;;;;5051662;28;20044;-85
2021/09/04 00:22:09;;;;;;;8.93;4.25;;;15.70;99.90;;;;;;5051624;28;20030;-85
2021/09/04 00:24:35;;;;;;;7.25;4.97;;;15.80;99.90;;;;;;5053057;28;20029;-84
2021/09/04 00:27:01;;;;;;;10.45;4.72;;;15.80;99.90;;;;;;5051380;28;20048;-85
2021/09/04 00:29:27;;;;;;;8.75;4.93;;;15.60;99.90;;;;;;5051545;28;20109;-85
2021/09/04 00:31:53;;;;;;;8.10;4.88;;;15.70;99.90;;;;;;5051546;28;20091;-85
2021/09/04 00:34:19;;;;;;;11.02;5.18;;;15.70;99.90;;;;;;5051545;28;20032;-85
2021/09/04 00:36:45;;;;;;;9.73;4.43;;;15.80;99.90;;;;;;5051381;28;20082;-85
2021/09/04 00:39:11;;;;;;;5.72;4.10;;;15.50;99.90;;;;;;5051448;28;20024;-85
2021/09/04 00:41:36;;;;;;;8.10;4.38;;;15.30;99.90;;;;;;5051401;28;20362;-85
2021/09/04 00:44:04;;;;;;;6.28;4.20;;;15.40;99.90;;;;;;5051343;28;20029;-85
2021/09/04 00:46:30;;;;;;;7.63;4.70;;;15.40;99.90;;;;;;5051362;28;20025;-85
2021/09/04 00:48:56;;;;;;;9.38;4.47;;;15.50;99.90;;;;;;5051399;28;20047;-85
2021/09/04 00:51:21;;;;;;;6.40;4.85;;;15.60;99.90;;;;;;5053106;28;20441;-85
2021/09/04 00:53:47;;;;;;;8.15;4.80;;;15.60;99.90;;;;;;5054971;28;20028;-85
2021/09/04 00:56:14;;;;;;;10.65;4.97;;;15.60;99.90;;;;;;5056466;28;20064;-85
2021/09/04 00:58:41;;;;;;;13.63;4.38;;;15.40;99.90;;;;;;5056855;28;20025;-85
2021/09/04 01:01:07;;;;;;;9.60;4.30;;;15.40;99.90;;;;;;5055181;28;20036;-85
2021/09/04 01:03:33;;;;;;;9.48;4.70;;;15.40;99.90;;;;;;5054855;28;20029;-86
2021/09/04 01:05:59;;;;;;;8.85;5.25;;;15.50;99.90;;;;;;5054802;28;20071;-85
2021/09/04 01:08:25;;;;;;;6.15;4.57;;;15.30;99.90;;;;;;5054843;28;20513;-85
2021/09/04 01:10:52;;;;;;;6.70;4.43;;;15.20;99.90;;;;;;5054730;28;20025;-85
2021/09/04 01:13:19;;;;;;;7.50;4.13;;;15.30;99.90;;;;;;5054889;28;20032;-85
2021/09/04 01:15:45;;;;;;;7.32;4.68;;;15.50;99.90;;;;;;5054762;28;20025;-85
2021/09/04 01:18:11;;;;;;;8.55;4.63;;;15.60;99.90;;;;;;5054616;28;20029;-85
2021/09/04 01:20:37;;;;;;;9.73;4.68;;;15.60;99.90;;;;;;5054561;28;20067;-85
2021/09/04 01:23:03;;;;;;;6.95;4.50;;;15.40;99.90;;;;;;5054386;28;20091;-85
2021/09/04 01:25:31;;;;;;;8.75;4.70;;;15.40;99.90;;;;;;5049547;28;20481;-85
2021/09/04 01:27:59;;;;;;;9.52;5.13;;;15.30;99.90;;;;;;5018054;28;20036;-86
2021/09/04 01:30:25;;;;;;;9.75;5.25;;;15.10;99.90;;;;;;5017894;28;20029;-85
2021/09/04 01:32:51;;;;;;;6.55;4.80;;;15.30;99.90;;;;;;5017911;28;20151;-86
2021/09/04 01:35:23;;;;;;;6.93;5.00;;;15.10;99.90;;;;;;5035678;28;20025;-86
2021/09/04 01:37:49;;;;;;;5.80;4.50;;;14.90;99.90;;;;;;5017796;28;20037;-85
2021/09/04 01:40:16;;;;;;;10.48;4.97;;;14.80;99.90;;;;;;5017765;28;20033;-85
2021/09/04 01:42:47;;;;;;;9.50;4.32;;;15.00;99.90;;;;;;5017668;28;20167;-85
2021/09/04 01:45:13;;;;;;;9.57;4.72;;;14.90;99.90;;;;;;5018318;28;20023;-85
2021/09/04 01:47:40;;;;;;;9.88;5.20;;;14.70;99.90;;;;;;5017603;28;20021;-86
2021/09/04 01:50:10;;;;;;;10.05;4.93;;;14.70;99.90;;;;;;5017629;28;20080;-85
2021/09/04 01:52:37;;;;;;;10.32;5.00;;;14.50;99.90;;;;;;5017537;28;20079;-85
2021/09/04 01:55:03;;;;;;;8.30;4.90;;;15.00;99.90;;;;;;5017500;28;20075;-85
2021/09/04 01:57:29;;;;;;;12.50;5.28;;;15.10;99.90;;;;;;5017362;28;20029;-85
2021/09/04 01:59:54;;;;;;;5.88;4.55;;;15.10;99.90;;;;;;5017390;28;20024;-85
2021/09/04 02:02:20;;;;;;;7.57;5.03;;;15.00;99.90;;;;;;5016995;28;20044;-85
2021/09/04 02:04:46;;;;;;;6.50;4.35;;;15.10;99.90;;;;;;5017337;28;20490;-86
2021/09/04 02:07:11;;;;;;;9.80;4.95;;;15.00;99.90;;;;;;5035291;28;20079;-85
2021/09/04 02:09:37;;;;;;;7.57;5.10;;;15.00;99.90;;;;;;5017232;28;20025;-85
2021/09/04 02:12:03;;;;;;;8.15;4.90;;;15.10;99.90;;;;;;5017171;28;20018;-85
2021/09/04 02:14:29;;;;;;;10.75;4.97;;;14.80;99.90;;;;;;5017366;28;20033;-86
2021/09/04 02:16:54;;;;;;;6.72;5.00;;;14.80;99.90;;;;;;5017100;28;20025;-85
2021/09/04 02:19:20;;;;;;;9.88;4.63;;;14.80;99.90;;;;;;5016925;28;20021;-85
2021/09/04 02:21:46;;;;;;;6.30;4.38;;;15.00;99.90;;;;;;5016920;28;20037;-85
2021/09/04 02:24:12;;;;;;;9.13;4.47;;;15.10;99.90;;;;;;5016836;28;20041;-85
2021/09/04 02:26:37;;;;;;;5.97;4.60;;;15.10;99.90;;;;;;5044120;28;20041;-85
2021/09/04 02:29:04;;;;;;;6.18;4.00;;;14.90;99.90;;;;;;5054739;28;20053;-85
2021/09/04 02:31:30;;;;;;;6.10;4.70;;;14.90;99.90;;;;;;5053215;28;20029;-85
2021/09/04 02:33:56;;;;;;;8.70;4.80;;;14.80;99.90;;;;;;5053383;28;20489;-85
2021/09/04 02:36:23;;;;;;;9.18;5.00;;;14.90;99.90;;;;;;5054565;28;20469;-85
2021/09/04 02:38:49;;;;;;;8.88;5.25;;;15.10;99.90;;;;;;5053087;28;20032;-85
2021/09/04 02:41:17;;;;;;;7.28;4.93;;;15.10;99.90;;;;;;5054267;28;20060;-85
2021/09/04 02:43:43;;;;;;;8.25;4.68;;;15.00;99.90;;;;;;5052873;28;20024;-85
2021/09/04 02:46:09;;;;;;;6.53;4.80;;;15.10;99.90;;;;;;5052910;28;20021;-85
2021/09/04 02:48:36;;;;;;;6.13;4.65;;;15.10;99.90;;;;;;5054192;28;20024;-85
2021/09/04 02:51:02;;;;;;;8.80;4.85;;;14.90;99.90;;;;;;5052808;28;20021;-85
2021/09/04 02:53:28;;;;;;;7.72;4.10;;;14.80;99.90;;;;;;5054032;28;20032;-86
2021/09/04 02:55:54;;;;;;;12.48;5.13;;;14.80;99.90;;;;;;5052702;28;20493;-85
2021/09/04 02:58:20;;;;;;;9.23;4.97;;;14.80;99.90;;;;;;5052692;28;20078;-85
2021/09/04 03:00:46;;;;;;;10.02;4.95;;;14.80;99.90;;;;;;5053784;28;20025;-86
2021/09/04 03:03:11;;;;;;;8.57;5.07;;;14.80;99.90;;;;;;5052517;28;20033;-85
2021/09/04 03:05:37;;;;;;;11.48;5.20;;;14.60;99.90;;;;;;5052603;28;20048;-85
2021/09/04 03:08:03;;;;;;;7.00;5.10;;;14.50;99.90;;;;;;5052546;28;20017;-85
2021/09/04 03:10:29;;;;;;;8.88;5.30;;;14.50;99.90;;;;;;5054062;28;20410;-85
2021/09/04 03:12:56;;;;;;;6.78;4.80;;;14.40;99.90;;;;;;5053592;28;20098;-84
2021/09/04 03:15:22;;;;;;;10.43;5.53;;;14.70;99.90;;;;;;5053286;28;20116;-84
2021/09/04 03:17:48;;;;;;;5.85;4.68;;;14.80;99.90;;;;;;5052571;28;20083;-85
2021/09/04 03:20:14;;;;;;;7.93;5.18;;;14.80;99.90;;;;;;5052401;28;20036;-85
2021/09/04 03:22:40;;;;;;;7.20;5.05;;;14.90;99.90;;;;;;5052233;28;20021;-85
2021/09/04 03:25:06;;;;;;;7.88;4.93;;;14.80;99.90;;;;;;5049337;28;20497;-85
2021/09/04 03:27:32;;;;;;;6.43;5.20;;;14.90;99.90;;;;;;5015906;28;20026;-85
2021/09/04 03:29:58;;;;;;;9.10;5.55;;;14.80;99.90;;;;;;5015809;28;20547;-85
2021/09/04 03:32:25;;;;;;;6.80;5.00;;;14.80;99.90;;;;;;5015885;28;20033;-85
2021/09/04 03:34:52;;;;;;;7.50;4.82;;;14.90;99.90;;;;;;5015694;28;20029;-85
2021/09/04 03:37:18;;;;;;;7.10;4.75;;;14.90;99.90;;;;;;5015959;28;20075;-85
2021/09/04 03:39:44;;;;;;;11.13;5.80;;;15.00;99.90;;;;;;5015671;28;20102;-85
2021/09/04 03:42:10;;;;;;;7.90;5.13;;;14.70;99.90;;;;;;5015647;28;20068;-85
2021/09/04 03:44:37;;;;;;;6.75;4.65;;;14.20;99.90;;;;;;5015539;28;20086;-85
2021/09/04 03:47:03;;;;;;;7.03;5.13;;;14.20;99.90;;;;;;5015551;28;20022;-85
2021/09/04 03:49:29;;;;;;;9.07;4.90;;;14.10;99.90;;;;;;5033270;28;20017;-85
2021/09/04 03:51:55;;;;;;;6.88;4.90;;;14.10;99.90;;;;;;5015552;28;20045;-85
2021/09/04 03:54:21;;;;;;;8.55;5.25;;;14.20;99.90;;;;;;5033227;28;20029;-85
2021/09/04 03:56:47;;;;;;;10.77;5.20;;;14.30;99.90;;;;;;5015526;28;20026;-85
2021/09/04 03:59:13;;;;;;;7.20;5.25;;;14.30;99.90;;;;;;5015795;28;20065;-85
2021/09/04 04:01:39;;;;;;;8.50;5.03;;;14.30;99.90;;;;;;5033181;28;20389;-85
2021/09/04 04:04:04;;;;;;;7.90;5.00;;;14.20;99.90;;;;;;5033374;28;20035;-85
2021/09/04 04:06:30;;;;;;;9.70;5.18;;;14.10;99.90;;;;;;5015441;28;20021;-85
2021/09/04 04:08:56;;;;;;;7.13;4.93;;;14.00;99.90;;;;;;5015341;28;20043;-85
2021/09/04 04:11:23;;;;;;;7.43;5.18;;;14.20;99.90;;;;;;5016209;28;20083;-85
2021/09/04 04:13:48;;;;;;;6.80;4.53;;;14.10;99.90;;;;;;5033048;28;20030;-85
2021/09/04 04:16:14;;;;;;;8.13;5.15;;;13.90;99.90;;;;;;5033373;28;20477;-85
2021/09/04 04:18:40;;;;;;;7.03;4.63;;;13.80;99.90;;;;;;5015345;28;20021;-88
2021/09/04 04:21:07;;;;;;;7.10;5.05;;;13.90;99.90;;;;;;5015359;28;20030;-85
2021/09/04 04:23:34;;;;;;;10.48;6.45;;;14.20;99.90;;;;;;5015216;28;20505;-87
2021/09/04 04:25:59;;;;;;;5.72;5.13;;;14.20;99.90;;;;;;5035019;28;20136;-87
2021/09/04 04:28:26;;;;;;;7.15;5.05;;;14.20;99.90;;;;;;5055605;28;20164;-87
2021/09/04 04:30:52;;;;;;;6.88;4.53;;;13.90;99.90;;;;;;5055514;28;20083;-87
2021/09/04 04:33:18;;;;;;;8.65;5.40;;;14.00;99.90;;;;;;5055522;28;20481;-87
2021/09/04 04:35:43;;;;;;;8.07;4.70;;;13.90;99.90;;;;;;5055495;28;20021;-87
2021/09/04 04:38:09;;;;;;;5.50;4.68;;;13.80;99.90;;;;;;5055558;28;20039;-87
2021/09/04 04:40:35;;;;;;;8.48;4.70;;;13.70;99.90;;;;;;5055286;28;20039;-87
2021/09/04 04:43:01;;;;;;;7.85;5.00;;;13.70;99.90;;;;;;5055184;28;20025;-86
2021/09/04 04:45:27;;;;;;;7.03;5.07;;;13.70;99.90;;;;;;5055231;28;20013;-86
2021/09/04 04:47:52;;;;;;;9.55;5.13;;;13.60;99.90;;;;;;5055139;28;20404;-86
2021/09/04 04:50:19;;;;;;;11.05;5.20;;;13.60;99.90;;;;;;5055138;28;20061;-86
2021/09/04 04:52:45;;;;;;;9.82;5.47;;;13.60;99.90;;;;;;5056683;28;20021;-86
2021/09/04 04:55:11;;;;;;;8.57;4.75;;;13.70;99.90;;;;;;5055075;28;20500;-86
2021/09/04 04:57:37;;;;;;;9.30;4.95;;;13.80;99.90;;;;;;5055263;28;20059;-86
2021/09/04 05:00:04;;;;;;;6.35;5.03;;;13.80;99.90;;;;;;5054967;28;20111;-86
2021/09/04 05:02:30;;;;;;;7.65;4.47;;;13.80;99.90;;;;;;5054760;28;20025;-86
2021/09/04 05:04:55;;;;;;;8.55;5.30;;;13.90;99.90;;;;;;5055238;28;20039;-86
2021/09/04 05:07:21;;;;;;;6.32;4.78;;;13.70;99.90;;;;;;5054815;28;20560;-86
2021/09/04 05:09:47;;;;;;;9.07;4.47;;;13.60;99.90;;;;;;5054734;28;20025;-86
2021/09/04 05:12:12;;;;;;;7.03;4.82;;;13.70;99.90;;;;;;5054753;28;20017;-86
2021/09/04 05:14:38;;;;;;;10.60;4.55;;;14.00;99.90;;;;;;5054675;28;20044;-86
2021/09/04 05:17:04;;;;;;;8.57;4.28;;;14.10;99.90;;;;;;5054726;28;20365;-86
2021/09/04 05:19:30;;;;;;;11.43;5.10;;;14.10;99.90;;;;;;5054669;28;20366;-86
2021/09/04 05:21:57;;;;;;;10.48;5.13;;;14.00;99.90;;;;;;5055461;28;20036;-86
2021/09/04 05:24:23;;;;;;;8.60;4.90;;;14.10;99.90;;;;;;5054649;28;20515;-86
2021/09/04 05:26:48;;;;;;;5.03;4.20;;;14.10;99.90;;;;;;5056793;28;20045;-87
2021/09/04 05:29:15;;;;;;;6.15;4.80;;;14.20;99.90;;;;;;5066199;28;20028;-86
2021/09/04 05:31:40;;;;;;;7.25;4.82;;;14.30;99.90;;;;;;5064143;28;20366;-86
2021/09/04 05:34:06;;;;;;;8.48;5.07;;;14.40;99.90;;;;;;5056878;28;20040;-86
2021/09/04 05:36:32;;;;;;;7.40;4.68;;;14.20;99.90;;;;;;5054129;28;20047;-86
2021/09/04 05:38:58;;;;;;;6.05;4.13;;;14.30;99.90;;;;;;5054612;28;20021;-86
2021/09/04 05:41:24;;;;;;;8.48;4.88;;;14.40;99.90;;;;;;5054324;28;20489;-86
2021/09/04 05:43:50;;;;;;;9.18;5.30;;;14.60;99.90;;;;;;5054142;28;20032;-86
2021/09/04 05:46:15;;;;;;;6.65;4.68;;;14.60;99.90;;;;;;5054138;28;20044;-86
2021/09/04 05:48:41;;;;;;;7.40;4.57;;;14.60;99.90;;;;;;5054044;28;20381;-86
2021/09/04 05:51:07;;;;;;;6.00;4.30;;;14.70;99.90;;;;;;5054574;28;20025;-86
2021/09/04 05:53:33;;;;;;;9.38;4.68;;;14.60;99.90;;;;;;5053967;28;20119;-86
2021/09/04 05:55:58;;;;;;;8.90;4.50;;;14.70;99.90;;;;;;5053857;28;20071;-86
2021/09/04 05:58:25;;;;;;;8.27;4.45;;;14.70;99.90;;;;;;5053827;28;20388;-86
2021/09/04 06:00:53;;;;;;;9.70;5.20;;;14.60;99.90;;;;;;5053831;28;20437;-86
2021/09/04 06:03:19;;;;;;;9.07;5.45;;;14.60;99.90;;;;;;5053702;28;20417;-86
2021/09/04 06:05:45;;;;;;;6.95;4.90;;;14.70;99.90;;;;;;5054991;28;20024;-86
2021/09/04 06:08:11;;;;;;;7.45;4.70;;;14.70;99.90;;;;;;5053637;28;20043;-86
2021/09/04 06:10:36;;;;;;;7.35;4.88;;;14.80;99.90;;;;;;5053624;28;20029;-86
2021/09/04 06:13:02;;;;;;;11.00;4.75;;;14.70;99.90;;;;;;5053585;28;20401;-86
2021/09/04 06:15:28;;;;;;;6.63;4.60;;;14.80;99.90;;;;;;5053531;28;20116;-86
2021/09/04 06:17:54;;;;;;;10.80;5.25;;;14.90;99.90;;;;;;5053483;28;20485;-86
2021/09/04 06:20:20;;;;;;;7.38;4.30;;;15.00;99.90;;;;;;5054681;28;20029;-86
2021/09/04 06:22:45;;;;;;;10.60;5.18;;;14.80;99.90;;;;;;5053350;28;20049;-86
2021/09/04 06:25:12;;;;;;;8.80;4.82;;;14.80;99.90;;;;;;5053239;28;20500;-86
2021/09/04 06:27:38;;;;;;;7.55;5.20;;;15.10;99.90;;;;;;5054831;28;20151;-88
2021/09/04 06:30:07;;;;;;;10.20;4.80;;;15.30;99.90;;;;;;5053322;28;20025;-87
2021/09/04 06:32:33;;;;;;;7.55;4.85;;;15.30;99.90;;;;;;5053157;28;20032;-87
2021/09/04 06:34:59;;;;;;;5.60;4.55;;;15.40;99.90;;;;;;5053178;28;20033;-87
2021/09/04 06:37:24;;;;;;;9.25;5.05;;;15.60;99.90;;;;;;5053335;28;20025;-86
2021/09/04 06:39:50;;;;;;;7.20;4.97;;;15.50;99.90;;;;;;5053366;28;20025;-86
2021/09/04 06:42:17;;;;;;;7.65;5.07;;;15.50;99.90;;;;;;5053017;28;20063;-87
2021/09/04 06:44:43;;;;;;;12.45;5.50;;;15.60;99.90;;;;;;5052892;28;20025;-86
2021/09/04 06:47:09;;;;;;;6.50;4.90;;;15.60;99.90;;;;;;5054221;28;20045;-87
2021/09/04 06:49:34;;;;;;;9.65;5.20;;;15.70;99.90;;;;;;5051905;28;20032;-87
2021/09/04 06:52:00;;;;;;;8.15;5.40;;;15.70;99.90;;;;;;5053098;28;20051;-87
2021/09/04 06:54:26;;;;;;;6.57;4.85;;;15.70;99.90;;;;;;5052853;28;20033;-87
2021/09/04 06:56:52;;;;;;;7.75;4.90;;;15.70;99.90;;;;;;5052780;28;20021;-88
2021/09/04 06:59:18;;;;;;;9.65;5.50;;;15.80;99.90;;;;;;5052808;28;20028;-88
2021/09/04 07:01:44;;;;;;;9.38;4.95;;;16.10;99.90;;;;;;5052694;28;20033;-88
2021/09/04 07:04:10;;;;;;;6.25;5.25;;;16.20;99.90;;;;;;5052607;28;20079;-87
2021/09/04 07:06:36;;;;;;;8.95;5.35;;;16.20;99.90;;;;;;5052607;28;20025;-88
2021/09/04 07:09:02;;;;;;;7.70;5.20;;;16.20;99.90;;;;;;5052671;28;20021;-87
2021/09/04 07:11:28;;;;;;;8.65;4.97;;;16.40;99.90;;;;;;5052572;28;20021;-87
2021/09/04 07:13:53;;;;;;;7.18;4.95;;;16.50;99.90;;;;;;5052446;28;20412;-86
2021/09/04 07:16:20;;;;;;;7.28;5.20;;;16.70;99.90;;;;;;5052477;28;20032;-87
2021/09/04 07:18:46;;;;;;;8.45;5.07;;;16.70;99.90;;;;;;5052635;28;20374;-91
2021/09/04 07:21:12;;;;;;;7.25;5.20;;;16.90;99.90;;;;;;5052889;28;20119;-90
2021/09/04 07:23:38;;;;;;;7.63;5.10;;;17.00;99.90;;;;;;5052576;28;20107;-90
2021/09/04 07:26:04;;;;;;;7.65;5.30;;;17.00;99.90;;;;;;5052625;28;20098;-90
2021/09/04 07:28:30;;;;;;;7.22;5.20;;;17.20;99.90;;;;;;5052618;28;20021;-90
2021/09/04 07:30:55;;;;;;;12.52;6.47;;;17.40;99.90;;;;;;5052612;28;20080;-90
2021/09/04 07:33:21;;;;;;;6.47;4.90;;;17.40;99.90;;;;;;5052597;28;20036;-89
2021/09/04 07:35:47;;;;;;;8.70;6.13;;;17.60;99.90;;;;;;5054030;28;20037;-89
2021/09/04 07:38:12;;;;;;;10.18;6.00;;;17.80;99.90;;;;;;5052431;28;20029;-89
2021/09/04 07:40:38;;;;;;;7.82;6.15;;;17.90;99.90;;;;;;5054138;28;20048;-89
2021/09/04 07:43:07;;;;;;;9.60;5.93;;;18.00;99.90;;;;;;5068650;28;20060;-89
2021/09/04 07:45:37;;;;;;;8.23;6.28;;;18.10;99.90;;;;;;5072201;28;20032;-89
2021/09/04 07:48:05;;;;;;;11.82;6.38;;;18.30;99.90;;;;;;5057113;28;20021;-90
2021/09/04 07:50:31;;;;;;;9.30;6.32;;;18.40;99.90;;;;;;5053490;28;20025;-90
2021/09/04 07:52:57;;;;;;;10.20;6.18;;;18.50;99.90;;;;;;5052433;28;20025;-89
2021/09/04 07:55:23;;;;;;;11.05;5.50;;;18.60;99.90;;;;;;5052161;28;20031;-89
2021/09/04 07:57:49;;;;;;;9.07;5.70;;;18.70;99.90;;;;;;5052235;28;20079;-89
2021/09/04 08:00:15;;;;;;;11.35;5.90;;;18.80;99.90;;;;;;5055339;28;20104;-90
2021/09/04 08:02:41;;;;;;;12.52;6.15;;;19.00;99.90;;;;;;5056158;28;20369;-90
2021/09/04 08:05:08;;;;;;;7.78;5.32;;;19.10;99.90;;;;;;5056202;28;20017;-89
2021/09/04 08:07:34;;;;;;;8.90;5.65;;;19.40;99.90;;;;;;5056100;28;20025;-90
2021/09/04 08:10:00;;;;;;;9.82;5.85;;;19.60;99.90;;;;;;5056222;28;20036;-89
2021/09/04 08:12:26;;;;;;;7.38;5.80;;;19.70;99.90;;;;;;5056230;28;20029;-89
2021/09/04 08:14:51;;;;;;;9.48;6.35;;;19.80;99.90;;;;;;5057298;28;20138;-89
2021/09/04 08:17:17;;;;;;;10.00;6.75;;;19.80;99.90;;;;;;5055861;28;20032;-89
2021/09/04 08:19:43;;;;;;;9.18;6.00;;;19.90;99.90;;;;;;5055793;28;20025;-89
2021/09/04 08:22:09;;;;;;;6.45;5.03;;;20.00;99.90;;;;;;5055919;28;20063;-89
2021/09/04 08:24:35;;;;;;;8.70;6.20;;;20.30;99.90;;;;;;5056878;28;20033;-89
2021/09/04 08:27:00;;;;;;;10.60;6.15;;;20.40;99.90;;;;;;5055679;28;20052;-89
2021/09/04 08:29:26;;;;;;;9.48;5.55;;;20.40;99.90;;;;;;5055830;28;20370;-89
2021/09/04 08:31:53;;;;;;;8.45;5.72;;;20.40;99.90;;;;;;5055644;28;20017;-88
2021/09/04 08:34:19;;;;;;;11.85;6.20;;;20.70;99.90;;;;;;5055549;28;20029;-89
2021/09/04 08:36:44;;;;;;;9.07;6.57;;;20.80;99.90;;;;;;5055449;28;20031;-90
2021/09/04 08:39:12;;;;;;;12.73;7.05;;;20.80;99.90;;;;;;5055431;28;20021;-88
2021/09/04 08:41:38;;;;;;;9.68;6.38;;;20.80;99.90;;;;;;5055421;28;20021;-89
2021/09/04 08:44:04;;;;;;;8.93;5.68;;;20.80;99.90;;;;;;5055275;28;20505;-89
2021/09/04 08:46:34;;;;;;;9.35;6.53;;;20.90;99.90;;;;;;5055342;28;20477;-89
2021/09/04 08:49:01;;;;;;;6.63;5.10;;;21.00;99.90;;;;;;5056623;28;20028;-89
2021/09/04 08:51:28;;;;;;;11.18;5.88;;;21.00;99.90;;;;;;5038898;28;20052;-89
2021/09/04 08:53:53;;;;;;;10.60;6.13;;;21.20;99.90;;;;;;5055278;28;20029;-89
2021/09/04 08:56:19;;;;;;;9.88;5.85;;;21.40;99.90;;;;;;5056444;28;20025;-89
2021/09/04 08:58:45;;;;;;;8.05;5.70;;;21.50;99.90;;;;;;5056467;28;20451;-89
2021/09/04 09:01:19;;;;;;;9.18;5.45;;;21.80;99.90;;;;;;5055192;28;20029;-88
2021/09/04 09:03:45;;;;;;;8.50;5.32;;;22.10;99.90;;;;;;5054973;28;20047;-88
2021/09/04 09:06:12;;;;;;;7.30;5.03;;;22.30;99.90;;;;;;5054971;28;20509;-89
2021/09/04 09:08:44;;;;;;;8.68;5.35;;;22.30;99.90;;;;;;5056178;28;20071;-89
2021/09/04 09:11:10;;;;;;;5.80;4.88;;;22.40;99.90;;;;;;5053881;28;20028;-89
2021/09/04 09:13:50;;;;;;;8.93;5.57;;;22.40;99.90;;;;;;5054678;28;20480;-88
2021/09/04 09:16:18;;;;;;;8.32;5.03;;;22.30;99.90;;;;;;5056131;28;20025;-88
2021/09/04 09:19:05;;;;;;;7.35;4.78;;;22.40;99.90;;;;;;5054751;28;20031;-89
2021/09/04 09:21:39;;;;;;;14.45;5.07;;;22.50;99.90;;;;;;5054781;28;20116;-89
2021/09/04 09:24:17;;;;;;;10.38;4.82;;;22.70;99.90;;;;;;5054770;28;20032;-91
2021/09/04 09:27:13;;;;;;;7.82;4.78;;;22.90;99.90;;;;;;5039890;28;20120;-89
2021/09/04 09:29:38;;;;;;;9.73;4.93;;;23.00;99.90;;;;;;5017472;28;20511;-90
2021/09/04 09:32:05;;;;;;;9.40;5.07;;;23.20;99.90;;;;;;5018184;28;20025;-90
2021/09/04 09:34:43;;;;;;;7.15;5.00;;;23.30;99.90;;;;;;5018193;28;20022;-89
2021/09/04 09:37:10;;;;;;;7.50;4.50;;;23.20;99.90;;;;;;5018030;28;20103;-89
2021/09/04 09:39:40;;;;;;;6.60;4.63;;;23.20;99.90;;;;;;5018353;28;20054;-89
2021/09/04 09:42:08;;;;;;;5.97;4.30;;;23.40;99.90;;;;;;5017960;28;20124;-89
2021/09/04 09:44:35;;;;;;;5.82;4.38;;;23.50;99.90;;;;;;5018074;28;20025;-90
2021/09/04 09:47:06;;;;;;;9.35;4.53;;;23.60;99.90;;;;;;5018073;28;20017;-90
2021/09/04 09:49:37;;;;;;;8.55;4.78;;;23.60;99.90;;;;;;5018438;28;20071;-91
2021/09/04 09:52:08;;;;;;;8.52;4.60;;;23.90;99.90;;;;;;5018665;28;20025;-89
2021/09/04 09:54:35;;;;;;;12.68;5.45;;;24.00;99.90;;;;;;5020168;28;20482;-90
2021/09/04 09:57:03;;;;;;;6.68;4.80;;;24.00;99.90;;;;;;5023777;28;20022;-91
2021/09/04 09:59:30;;;;;;;6.40;4.55;;;24.00;99.90;;;;;;5033451;28;20067;-90
2021/09/04 10:01:57;;;;;;;7.53;4.65;;;24.10;99.90;;;;;;5024169;28;20066;-90
2021/09/04 10:04:27;;;;;;;6.88;4.75;;;24.30;99.90;;;;;;5018666;28;20029;-89
2021/09/04 10:06:54;;;;;;;7.22;5.03;;;24.40;99.90;;;;;;5035944;28;20023;-90
2021/09/04 10:09:24;;;;;;;11.45;5.32;;;24.30;99.90;;;;;;5017955;28;20440;-90
2021/09/04 10:11:50;;;;;;;6.22;4.22;;;24.60;99.90;;;;;;5017978;28;20017;-91
2021/09/04 10:14:17;;;;;;;5.90;4.93;;;24.60;99.90;;;;;;5017578;28;20045;-91
2021/09/04 10:16:45;;;;;;;5.75;4.47;;;24.80;99.90;;;;;;5017728;28;20389;-91
2021/09/04 10:19:15;;;;;;;6.15;4.60;;;25.00;99.90;;;;;;5018463;28;20474;-90
2021/09/04 10:21:41;;;;;;;9.30;4.75;;;25.10;99.90;;;;;;5017827;28;20041;-91
2021/09/04 10:24:08;;;;;;;7.88;4.35;;;25.00;99.90;;;;;;5017473;28;20037;-91
2021/09/04 10:26:36;;;;;;;5.70;4.65;;;25.10;99.90;;;;;;5043903;28;20088;-90
2021/09/04 10:29:14;;;;;;;6.78;4.53;;;25.10;99.90;;;;;;5054029;28;20227;-90
2021/09/04 10:32:00;;;;;;;5.63;4.55;;;25.50;99.90;;;;;;5054062;28;20070;-91
2021/09/04 10:34:37;;;;;;;5.57;4.35;;;25.50;99.90;;;;;;5054044;28;20485;-91
2021/09/04 10:37:08;;;;;;;7.60;4.18;;;25.40;99.90;;;;;;5055193;28;20511;-91
2021/09/04 10:39:52;;;;;;;5.38;3.92;;;25.50;99.90;;;;;;5055393;28;20384;-90
2021/09/04 10:42:25;;;;;;;5.32;4.45;;;25.90;99.90;;;;;;5053484;28;20024;-91
2021/09/04 10:45:02;;;;;;;7.63;4.40;;;26.00;99.90;;;;;;5053792;28;20539;-91
2021/09/04 10:47:29;;;;;;;4.97;3.95;;;26.30;99.90;;;;;;5053443;28;20481;-91
2021/09/04 10:50:13;;;;;;;8.15;4.30;;;26.50;99.90;;;;;;5053254;28;20018;-92
2021/09/04 10:52:53;;;;;;;5.60;3.72;;;26.60;99.90;;;;;;5053338;28;20387;-90
2021/09/04 10:55:26;;;;;;;7.63;4.32;;;27.20;99.80;;;;;;5053373;28;20125;-91
2021/09/04 10:58:13;;;;;;;5.95;3.83;;;27.10;98.30;;;;;;5053500;28;20024;-91
2021/09/04 11:00:46;;;;;;;6.18;4.20;;;27.20;99.10;;;;;;5054399;28;20041;-90
2021/09/04 11:03:14;;;;;;;5.32;3.83;;;27.50;98.30;;;;;;5052809;28;20108;-91
2021/09/04 11:05:47;;;;;;;5.60;4.07;;;27.50;97.70;;;;;;5053145;28;20032;-89
2021/09/04 11:08:20;;;;;;;7.80;4.05;;;27.80;97.20;;;;;;5053146;28;20045;-91
2021/09/04 11:11:09;;;;;;;5.05;4.03;;;28.00;96.70;;;;;;5052777;28;20380;-90
2021/09/04 11:13:39;;;;;;;4.40;3.80;;;28.00;94.90;;;;;;5052796;28;20036;-91
2021/09/04 11:16:33;;;;;;;4.93;4.10;;;28.10;95.40;;;;;;5053941;28;20025;-91
2021/09/04 11:19:16;;;;;;;6.88;4.18;;;28.40;95.10;;;;;;5054461;28;20267;-90
2021/09/04 11:21:52;;;;;;;7.18;3.72;;;28.50;94.40;;;;;;5052985;28;20186;-91
2021/09/04 11:24:19;;;;;;;6.45;4.10;;;28.80;94.10;;;;;;5054320;28;20104;-94
2021/09/04 11:26:51;;;;;;;7.07;3.92;;;28.80;94.50;;;;;;5052951;28;20501;-92
2021/09/04 11:29:17;;;;;;;4.78;4.07;;;28.90;92.80;;;;;;5054377;28;20057;-92
2021/09/04 11:31:57;;;;;;;4.88;3.58;;;28.80;93.20;;;;;;5052962;28;20028;-92
2021/09/04 11:34:45;;;;;;;5.70;3.90;;;28.80;93.00;;;;;;5052436;28;20025;-92
2021/09/04 11:37:16;;;;;;;4.72;3.63;;;;;;;;;;5053869;28;20020;-91
2021/09/04 11:39:42;;;;;;;4.97;3.72;;;;;;;;;;5052483;28;20032;-85
2021/09/04 11:42:16;;;;;;;8.90;3.70;;;29.80;91.80;;;;;;5052542;28;20021;-92
2021/09/04 11:44:53;;;;;;;9.50;4.20;;;29.80;91.40;;;;;;5052578;28;20056;-91
2021/09/04 11:47:20;;;;;;;5.93;3.60;;;29.90;91.20;;;;;;5052485;28;20106;-91
2021/09/04 11:49:53;;;;;;;6.85;3.80;;;30.30;90.10;;;;;;5052401;28;20033;-91
2021/09/04 11:52:22;;;;;;;3.57;3.27;;;30.40;89.50;;;;;;5052971;28;20021;-90
2021/09/04 11:54:48;;;;;;;10.50;3.92;;;30.70;88.70;;;;;;5052397;28;20029;-92
2021/09/04 11:57:28;;;;;;;6.28;3.67;;;30.80;86.50;;;;;;5053571;28;20035;-91
2021/09/04 12:00:10;;;;;;;5.40;3.90;;;30.60;85.30;;;;;;5053599;28;20100;-91
2021/09/04 12:02:40;;;;;;;4.38;3.30;;;30.80;86.80;;;;;;5052343;28;20025;-92
2021/09/04 12:05:06;;;;;;;5.82;3.60;;;31.30;84.70;;;;;;5052606;28;20508;-91
2021/09/04 12:07:34;;;;;;;6.70;3.33;;;31.50;85.50;;;;;;5052305;28;20029;-91
2021/09/04 12:10:03;;;;;;;4.00;3.35;;;31.90;83.80;;;;;;5056978;28;20021;-92
2021/09/04 12:12:29;;;;;;;6.40;3.70;;;32.40;81.90;;;;;;5059493;28;20057;-91
2021/09/04 12:14:56;;;;;;;5.80;3.47;;;31.80;80.40;;;;;;5054982;28;20504;-91
2021/09/04 12:17:24;;;;;;;7.07;3.53;;;31.70;80.20;;;;;;5052581;28;20025;-92
2021/09/04 12:19:50;;;;;;;6.03;3.00;;;31.90;81.10;;;;;;5052514;28;20373;-92
2021/09/04 12:22:17;;;;;;;4.50;3.05;;;31.70;79.40;;;;;;5052204;28;20017;-92
2021/09/04 12:24:42;;;;;;;7.55;3.53;;;31.50;78.30;;;;;;5052024;28;20025;-90
2021/09/04 12:27:09;;;;;;;5.13;2.85;;;31.30;77.40;;;;;;5051991;28;20049;-91
2021/09/04 12:29:35;;;;;;;4.63;3.40;;;30.80;78.20;;;;;;5052253;28;20036;-92
2021/09/04 12:32:12;;;;;;;3.95;3.15;;;30.90;77.80;;;;;;5053572;28;20049;-91
2021/09/04 12:34:39;;;;;;;4.47;3.20;;;30.80;77.90;;;;;;5052481;28;20082;-91
2021/09/04 12:37:24;;;;;;;6.68;3.33;;;31.20;75.10;;;;;;5052303;28;20032;-91
2021/09/04 12:39:50;;;;;;;5.22;3.00;;;31.60;72.50;;;;;;5052247;28;20392;-91
2021/09/04 12:42:16;;;;;;;4.72;3.13;;;31.50;75.50;;;;;;5052283;28;20032;-91
2021/09/04 12:44:46;;;;;;;4.35;2.95;;;31.50;74.00;;;;;;5052139;28;20055;-91
2021/09/04 12:47:14;;;;;;;6.30;2.75;;;31.50;75.60;;;;;;5055369;28;20036;-91